Time;durP1;ratioP1;P1;durP2;ratioP2;P2;SDS_P1;SDS_P2;PMS_P1;PMS_P2;Temp;Humidity;BMP_temperature;BMP_pressure;BME280_temperature;BME280_humidity;BME280_pressure;Samples;Min_cycle;Max_cycle;Signal;HPM_P1;HPM_P2
2022/07/26 00:00:15;;;;;;;22.50;7.10;;;;;;;24.47;100.00;101143.78;5076970;28;20040;-52
2022/07/26 00:02:41;;;;;;;22.37;7.80;;;;;;;24.39;100.00;101136.97;5073669;28;20104;-53
2022/07/26 00:05:07;;;;;;;67.75;26.45;;;;;;;24.39;100.00;101149.84;5071028;28;20036;-51
2022/07/26 00:07:33;;;;;;;54.73;16.03;;;;;;;24.35;100.00;101141.38;5071390;28;20037;-52
2022/07/26 00:09:59;;;;;;;14.43;3.72;;;;;;;24.22;100.00;101144.72;5075230;28;20056;-52
2022/07/26 00:12:25;;;;;;;16.23;3.25;;;;;;;24.96;100.00;101150.31;5079005;28;20033;-53
2022/07/26 00:14:52;;;;;;;25.63;6.00;;;;;;;24.30;100.00;101149.63;5077573;28;20040;-53
2022/07/26 00:17:17;;;;;;;;;;;;;;;24.40;100.00;101148.75;5074340;28;20057;-52
2022/07/26 00:19:43;;;;;;;18.00;4.13;;;;;;;24.11;100.00;101146.69;5079638;28;19920;-53
2022/07/26 00:24:53;;;;;;;14.47;3.00;;;;;;;24.14;100.00;101143.41;5068165;28;20052;-50
2022/07/26 00:27:19;;;;;;;11.40;3.25;;;;;;;23.91;100.00;101153.84;5070152;28;20048;-53
2022/07/26 00:29:44;;;;;;;16.02;3.47;;;;;;;24.51;100.00;101153.03;5073380;28;20041;-50
2022/07/26 00:32:10;;;;;;;13.85;3.55;;;;;;;23.75;100.00;101155.78;5071306;28;20128;-50
2022/07/26 00:34:35;;;;;;;6.32;2.13;;;;;;;23.46;100.00;101154.50;5075881;28;20057;-54
2022/07/26 00:37:00;;;;;;;13.38;2.42;;;;;;;23.66;100.00;101150.09;5074937;28;20088;-49
2022/07/26 00:39:27;;;;;;;10.55;2.45;;;;;;;24.23;100.00;101154.56;5073196;28;20037;-54
2022/07/26 00:41:53;;;;;;;14.87;3.33;;;;;;;23.86;100.00;101154.66;5074051;28;20070;-52
2022/07/26 00:44:19;;;;;;;14.65;2.75;;;;;;;23.83;100.00;101155.22;5075375;28;20053;-53
2022/07/26 00:46:44;;;;;;;15.50;3.33;;;;;;;23.69;100.00;101151.44;5075493;28;20060;-51
2022/07/26 00:49:11;;;;;;;16.27;2.85;;;;;;;23.56;100.00;101155.56;5075313;28;20100;-50
2022/07/26 00:51:36;;;;;;;;;;;;;;;23.57;100.00;101159.91;5070272;28;20044;-49
2022/07/26 00:54:04;;;;;;;14.00;2.77;;;;;;;23.92;100.00;101161.75;5072667;28;19912;-54
2022/07/26 00:56:31;;;;;;;12.43;2.57;;;;;;;23.70;100.00;101161.25;5068226;28;20040;-54
2022/07/26 00:58:58;;;;;;;12.63;2.10;;;;;;;23.76;100.00;101168.38;5069863;28;20033;-52
2022/07/26 01:01:24;;;;;;;9.73;2.83;;;;;;;23.51;100.00;101164.56;5071241;28;20041;-50
2022/07/26 01:03:52;;;;;;;16.40;3.03;;;;;;;23.36;100.00;101165.41;5072820;28;20048;-52
2022/07/26 01:06:18;;;;;;;11.10;2.67;;;;;;;23.78;100.00;101168.91;5074853;28;20067;-52
2022/07/26 01:08:44;;;;;;;;;;;;;;;23.51;100.00;101167.28;5073782;28;20029;-51
2022/07/26 01:11:09;;;;;;;13.67;3.30;;;;;;;23.58;100.00;101162.38;5071827;28;19972;-51
2022/07/26 01:13:35;;;;;;;16.92;2.75;;;;;;;23.63;100.00;101165.09;5072865;28;20041;-53
2022/07/26 01:16:00;;;;;;;13.32;2.78;;;;;;;23.28;100.00;101160.50;5074551;28;20032;-52
2022/07/26 01:18:26;;;;;;;10.50;2.70;;;;;;;22.68;100.00;101174.59;5081446;28;20055;-57
2022/07/26 01:20:52;;;;;;;12.77;2.72;;;;;;;23.20;100.00;101167.28;5075934;28;20036;-50
2022/07/26 01:23:18;;;;;;;16.60;2.67;;;;;;;23.23;100.00;101174.94;5073832;28;20048;-53
2022/07/26 01:25:44;;;;;;;13.93;2.97;;;;;;;23.47;100.00;101174.41;5076901;28;20029;-54
2022/07/26 01:28:09;;;;;;;18.90;4.15;;;;;;;23.31;100.00;101168.97;5081027;28;20040;-53
2022/07/26 01:30:35;;;;;;;27.60;4.72;;;;;;;22.88;100.00;101182.81;5068352;28;20044;-51
2022/07/26 01:33:01;;;;;;;37.47;5.67;;;;;;;22.64;100.00;101193.41;5074444;28;20043;-52
2022/07/26 01:35:27;;;;;;;22.35;4.93;;;;;;;22.46;100.00;101195.53;5073625;28;20262;-51
2022/07/26 01:37:53;;;;;;;26.40;7.07;;;;;;;23.66;100.00;101180.13;5073706;28;20095;-50
2022/07/26 01:40:18;;;;;;;30.60;5.82;;;;;;;22.78;100.00;101189.06;5070893;28;20097;-51
2022/07/26 01:42:43;;;;;;;40.30;7.78;;;;;;;22.62;100.00;101184.69;5074018;28;20072;-50
2022/07/26 01:45:11;;;;;;;33.78;8.35;;;;;;;23.08;100.00;101186.66;5071936;28;20120;-49
2022/07/26 01:47:37;;;;;;;30.07;7.40;;;;;;;23.82;100.00;101183.63;5074405;28;20544;-52
2022/07/26 01:50:04;;;;;;;;;;;;;;;23.29;100.00;101175.78;5074826;28;20029;-52
2022/07/26 01:52:29;;;;;;;21.20;8.03;;;;;;;22.50;100.00;101176.75;5072867;28;19912;-51
2022/07/26 01:54:54;;;;;;;27.95;8.02;;;;;;;21.58;100.00;101175.94;5070663;28;20101;-50
2022/07/26 01:57:20;;;;;;;27.27;8.50;;;;;;;22.68;100.00;101183.59;5070997;28;20045;-50
2022/07/26 01:59:45;;;;;;;32.53;8.73;;;;;;;22.46;100.00;101181.91;5072309;28;20029;-53
2022/07/26 02:02:11;;;;;;;28.27;9.17;;;;;;;22.61;100.00;101188.50;5072287;28;20037;-51
2022/07/26 02:04:57;;;;;;;32.00;9.68;;;;;;;22.92;100.00;101183.91;5070079;28;20062;-51
2022/07/26 02:07:37;;;;;;;39.10;11.20;;;;;;;22.96;100.00;101195.09;5078671;28;20079;-54
2022/07/26 02:10:03;;;;;;;41.37;10.60;;;;;;;22.97;100.00;101191.28;5071822;28;20036;-51
2022/07/26 02:12:29;;;;;;;;;;;;;;;22.85;100.00;101198.91;5073802;28;20037;-52
2022/07/26 02:14:55;;;;;;;33.10;10.47;;;;;;;22.34;100.00;101189.44;5071356;28;19919;-54
2022/07/26 02:17:20;;;;;;;30.88;9.30;;;;;;;22.56;100.00;101188.47;5069105;28;20085;-50
2022/07/26 02:19:46;;;;;;;16.77;8.45;;;;;;;22.29;100.00;101193.00;5068173;28;20045;-54
2022/07/26 02:22:12;;;;;;;32.05;9.77;;;;;;;22.72;100.00;101190.16;5075673;28;20028;-51
2022/07/26 02:24:38;;;;;;;;;;;;;;;22.44;100.00;101194.94;5070105;28;20030;-53
2022/07/26 02:27:03;;;;;;;28.43;9.73;;;;;;;22.67;100.00;101187.41;5072747;28;19919;-49
2022/07/26 02:29:30;;;;;;;;;;;;;;;22.47;100.00;101199.06;5073155;28;20036;-55
2022/07/26 02:31:56;;;;;;;30.83;10.60;;;;;;;22.73;100.00;101194.50;5070853;28;19968;-48
2022/07/26 02:34:22;;;;;;;25.80;9.80;;;;;;;22.31;100.00;101195.44;5070822;28;20033;-50
2022/07/26 02:36:49;;;;;;;31.73;9.65;;;;;;;22.90;100.00;101201.63;5070985;28;20281;-51
2022/07/26 02:39:15;;;;;;;32.50;9.73;;;;;;;22.74;100.00;101198.88;5069945;28;20033;-50
2022/07/26 02:41:41;;;;;;;24.38;9.65;;;;;;;22.79;100.00;101203.53;5072523;28;20139;-49
2022/07/26 02:44:07;;;;;;;21.15;9.27;;;;;;;23.17;100.00;101211.50;5076801;28;20052;-52
2022/07/26 02:46:33;;;;;;;28.97;10.53;;;;;;;22.89;100.00;101210.91;5067822;28;20488;-52
2022/07/26 02:48:59;;;;;;;28.23;9.18;;;;;;;22.92;100.00;101215.81;5075306;28;20094;-53
2022/07/26 02:51:26;;;;;;;26.05;9.38;;;;;;;23.18;100.00;101219.41;5068990;28;20045;-49
2022/07/26 02:53:52;;;;;;;25.10;9.80;;;;;;;23.08;100.00;101215.84;5073545;28;20056;-51
2022/07/26 02:56:18;;;;;;;34.30;8.33;;;;;;;22.59;100.00;101213.28;5070618;28;20048;-53
2022/07/26 02:58:43;;;;;;;24.52;8.95;;;;;;;23.24;100.00;101220.22;5073937;28;20033;-50
2022/07/26 03:01:09;;;;;;;24.45;8.05;;;;;;;23.20;100.00;101219.13;5068068;28;20064;-48
2022/07/26 03:03:34;;;;;;;32.40;8.95;;;;;;;23.33;100.00;101215.06;5076871;28;20032;-53
2022/07/26 03:06:00;;;;;;;29.77;9.20;;;;;;;23.44;100.00;101204.97;5071006;28;20037;-49
2022/07/26 03:08:25;;;;;;;29.77;9.55;;;;;;;23.11;100.00;101209.84;5076876;28;20313;-51
2022/07/26 03:10:51;;;;;;;20.87;8.40;;;;;;;23.33;100.00;101215.06;5073142;28;20037;-52
2022/07/26 03:13:17;;;;;;;25.85;8.93;;;;;;;23.51;100.00;101208.22;5072018;28;20290;-54
2022/07/26 03:15:42;;;;;;;32.03;8.70;;;;;;;23.41;100.00;101209.09;5071886;28;20037;-52
2022/07/26 03:18:08;;;;;;;39.10;8.43;;;;;;;23.06;100.00;101222.38;5073687;28;20100;-49
2022/07/26 03:20:33;;;;;;;24.13;8.67;;;;;;;23.18;100.00;101224.88;5071729;28;20049;-51
2022/07/26 03:22:58;;;;;;;25.03;8.67;;;;;;;22.94;100.00;101230.00;5076306;28;20052;-52
2022/07/26 03:25:24;;;;;;;28.13;9.17;;;;;;;22.76;100.00;101234.84;5074938;28;20278;-50
2022/07/26 03:27:49;;;;;;;28.37;9.13;;;;;;;22.23;100.00;101231.34;5072873;28;20041;-52
2022/07/26 03:30:14;;;;;;;27.45;8.43;;;;;;;22.02;100.00;101234.78;5076042;28;20300;-53
2022/07/26 03:32:40;;;;;;;25.93;9.20;;;;;;;22.77;100.00;101230.25;5075057;28;20047;-48
2022/07/26 03:35:07;;;;;;;29.40;9.65;;;;;;;22.64;100.00;101237.03;5073873;28;20040;-50
2022/07/26 03:37:33;;;;;;;26.93;9.20;;;;;;;21.89;100.00;101235.25;5076924;28;20029;-51
2022/07/26 03:39:58;;;;;;;24.67;9.43;;;;;;;22.57;100.00;101242.72;5074941;28;20055;-49
2022/07/26 03:42:24;;;;;;;20.70;9.27;;;;;;;21.95;100.00;101247.81;5081151;28;20047;-53
2022/07/26 03:44:49;;;;;;;28.45;8.43;;;;;;;22.15;100.00;101236.22;5074100;28;20049;-52
2022/07/26 03:47:15;;;;;;;22.38;10.20;;;;;;;21.89;100.00;101249.66;5076302;28;20055;-48
2022/07/26 03:49:41;;;;;;;32.03;9.68;;;;;;;22.11;100.00;101251.44;5074491;28;20053;-53
2022/07/26 03:52:06;;;;;;;25.92;9.45;;;;;;;22.25;100.00;101250.97;5070548;28;20040;-49
2022/07/26 03:54:32;;;;;;;25.88;9.18;;;;;;;22.13;100.00;101265.59;5073853;28;20191;-52
2022/07/26 03:56:57;;;;;;;17.03;7.30;;;;;;;22.19;100.00;101266.47;5073819;28;20041;-50
2022/07/26 03:59:24;;;;;;;24.13;8.32;;;;;;;22.09;100.00;101259.06;5075085;28;20315;-50
2022/07/26 04:01:50;;;;;;;31.30;9.27;;;;;;;21.78;100.00;101269.75;5076105;28;20124;-50
2022/07/26 04:04:17;;;;;;;26.87;10.87;;;;;;;22.05;100.00;101269.69;5073921;28;20029;-48
2022/07/26 04:06:45;;;;;;;21.70;10.53;;;;;;;22.26;100.00;101269.81;5082778;28;20088;-53
2022/07/26 04:09:12;;;;;;;39.33;13.70;;;;;;;22.03;100.00;101265.56;5075397;28;20083;-52
2022/07/26 04:11:39;;;;;;;35.63;12.60;;;;;;;22.16;100.00;101265.09;5074506;28;20041;-51
2022/07/26 04:14:04;;;;;;;34.38;12.90;;;;;;;22.27;100.00;101271.44;5074026;28;20111;-50
2022/07/26 04:16:30;;;;;;;33.72;12.50;;;;;;;22.41;100.00;101271.78;5073209;28;20033;-52
2022/07/26 04:18:56;;;;;;;27.70;12.67;;;;;;;21.74;100.00;101268.63;5073496;28;20048;-54
2022/07/26 04:21:22;;;;;;;36.75;13.55;;;;;;;22.42;100.00;101273.41;5072518;28;20033;-49
2022/07/26 04:23:48;;;;;;;36.83;13.32;;;;;;;22.09;100.00;101264.50;5073770;28;20044;-51
2022/07/26 04:26:13;;;;;;;25.73;10.45;;;;;;;21.96;100.00;101270.44;5073085;28;20021;-52
2022/07/26 04:28:40;;;;;;;34.03;13.10;;;;;;;22.08;100.00;101265.59;5074966;28;20040;-50
2022/07/26 04:31:06;;;;;;;33.10;14.20;;;;;;;22.09;100.00;101269.94;5074270;28;20048;-48
2022/07/26 04:33:32;;;;;;;34.38;14.23;;;;;;;22.07;100.00;101274.84;5072943;28;20140;-52
2022/07/26 04:35:58;;;;;;;36.92;13.68;;;;;;;21.91;100.00;101282.09;5074011;28;20033;-52
2022/07/26 04:38:24;;;;;;;30.02;12.30;;;;;;;21.90;100.00;101278.53;5077161;28;20029;-53
2022/07/26 04:40:50;;;;;;;28.73;12.45;;;;;;;21.82;100.00;101281.75;5073991;28;20067;-49
2022/07/26 04:43:16;;;;;;;;;;;;;;;21.82;100.00;101280.94;5075000;28;20044;-54
2022/07/26 04:45:44;;;;;;;35.20;12.20;;;;;;;22.17;100.00;101274.91;5071883;28;19920;-53
2022/07/26 04:48:09;;;;;;;29.87;10.10;;;;;;;21.94;100.00;101278.03;5078296;28;20025;-49
2022/07/26 04:50:35;;;;;;;31.30;10.07;;;;;;;21.77;100.00;101276.28;5072734;28;20104;-50
2022/07/26 04:53:03;;;;;;;20.53;9.77;;;;;;;21.90;100.00;101278.53;5074098;28;20053;-50
2022/07/26 04:55:29;;;;;;;37.17;14.02;;;;;;;21.87;100.00;101283.69;5070981;28;20060;-52
2022/07/26 04:57:54;;;;;;;25.38;11.98;;;;;;;21.60;100.00;101284.56;5070962;28;20041;-52
2022/07/26 05:00:23;;;;;;;36.85;13.88;;;;;;;21.63;100.00;101289.47;5073773;28;20039;-50
2022/07/26 05:02:57;;;;;;;43.47;18.87;;;;;;;22.06;100.00;101289.53;5073229;28;20108;-56
2022/07/26 05:05:31;;;;;;;27.20;11.80;;;;;;;22.56;100.00;101289.28;5074854;28;20041;-49
2022/07/26 05:07:58;;;;;;;29.80;12.73;;;;;;;22.14;100.00;101297.22;5074507;28;20044;-54
2022/07/26 05:10:31;;;;;;;48.33;16.27;;;;;;;22.43;100.00;101287.84;5069963;28;20059;-49
2022/07/26 05:12:57;;;;;;;39.60;17.43;;;;;;;22.53;100.00;101298.00;5073041;28;20043;-54
2022/07/26 05:15:23;;;;;;;38.60;14.98;;;;;;;21.98;100.00;101307.19;5070377;28;20028;-50
2022/07/26 05:17:48;;;;;;;39.65;16.38;;;;;;;22.19;100.00;101307.31;5078508;28;20039;-51
2022/07/26 05:20:15;;;;;;;44.28;16.02;;;;;;;22.37;100.00;101308.78;5071958;28;20052;-53
2022/07/26 05:22:41;;;;;;;35.72;15.10;;;;;;;22.44;100.00;101312.13;5071855;28;20037;-54
2022/07/26 05:25:07;;;;;;;;;;;;;;;22.29;100.00;101317.47;5067157;28;20029;-47
2022/07/26 05:27:33;;;;;;;29.87;12.07;;;;;;;22.47;100.00;101324.41;5069329;28;19912;-50
2022/07/26 05:29:58;;;;;;;32.20;13.60;;;;;;;22.15;100.00;101322.56;5075353;28;20041;-48
2022/07/26 05:32:24;;;;;;;36.75;12.00;;;;;;;22.29;100.00;101320.19;5068180;28;20029;-52
2022/07/26 05:34:49;;;;;;;26.58;10.48;;;;;;;22.33;100.00;101311.25;5063701;28;20039;-52
2022/07/26 05:37:15;;;;;;;22.52;8.98;;;;;;;22.27;100.00;101314.19;5070773;28;20033;-49
2022/07/26 05:39:41;;;;;;;19.73;7.73;;;;;;;22.29;100.00;101328.38;5072435;28;20048;-53
2022/07/26 05:42:07;;;;;;;22.30;8.25;;;;;;;22.64;100.00;101316.06;5070616;28;20058;-48
2022/07/26 05:44:32;;;;;;;24.45;10.60;;;;;;;22.27;100.00;101325.91;5072156;28;20072;-50
2022/07/26 05:46:58;;;;;;;26.92;11.05;;;;;;;22.73;100.00;101317.19;5066389;28;20055;-51
2022/07/26 05:49:24;;;;;;;23.27;8.43;;;;;;;22.62;100.00;101312.78;5066279;28;20033;-50
2022/07/26 05:51:50;;;;;;;24.97;9.87;;;;;;;22.49;100.00;101327.72;5065371;28;20036;-53
2022/07/26 05:54:17;;;;;;;27.13;10.32;;;;;;;22.59;100.00;101326.91;5065063;28;20035;-51
2022/07/26 05:56:43;;;;;;;31.57;10.10;;;;;;;22.87;100.00;101333.06;5067432;28;20057;-51
2022/07/26 05:59:09;;;;;;;;;;;;;;;22.93;100.00;101334.72;5071480;28;20052;-54
2022/07/26 06:01:35;;;;;;;24.67;8.73;;;;;;;22.63;100.00;101331.59;5067860;28;19976;-54
2022/07/26 06:04:01;;;;;;;32.80;10.57;;;;;;;23.08;100.00;101333.13;5071771;28;20041;-51
2022/07/26 06:06:26;;;;;;;30.35;10.27;;;;;;;23.28;100.00;101338.66;5074045;28;20124;-52
2022/07/26 06:08:52;;;;;;;18.38;7.20;;;;;;;23.09;100.00;101329.31;5073202;28;20041;-52
2022/07/26 06:11:18;;;;;;;23.13;6.75;;;;;;;23.29;100.00;101337.56;5074177;28;20053;-52
2022/07/26 06:13:43;;;;;;;23.80;7.57;;;;;;;23.48;100.00;101346.06;5074216;28;20049;-54
2022/07/26 06:16:09;;;;;;;24.45;5.75;;;;;;;23.33;100.00;101352.34;5069090;28;21600;-50
2022/07/26 06:18:34;;;;;;;16.17;5.43;;;;;;;23.31;100.00;101359.97;5071425;28;20041;-52
2022/07/26 06:21:00;;;;;;;15.68;6.20;;;;;;;23.27;100.00;101353.38;5068049;28;20328;-49
2022/07/26 06:23:25;;;;;;;12.90;4.88;;;;;;;23.46;100.00;101355.63;5053795;28;20447;-50
2022/07/26 06:25:51;;;;;;;11.05;3.92;;;;;;;23.40;100.00;101367.63;5069019;28;20055;-54
2022/07/26 06:28:16;;;;;;;9.25;3.00;;;;;;;23.27;100.00;101364.28;5069364;28;20037;-54
2022/07/26 06:30:43;;;;;;;8.82;3.10;;;;;;;23.41;100.00;101364.63;5068611;28;20041;-49
2022/07/26 06:33:09;;;;;;;7.93;3.10;;;;;;;23.15;100.00;101360.97;5069798;28;20048;-53
2022/07/26 06:35:37;;;;;;;10.02;3.65;;;;;;;23.78;100.00;101365.50;5070762;28;20025;-51
2022/07/26 06:38:04;;;;;;;11.33;3.20;;;;;;;23.92;100.00;101363.03;5066477;28;20037;-54
2022/07/26 06:40:30;;;;;;;14.40;2.70;;;;;;;23.47;100.00;101366.28;5068928;28;20040;-53
2022/07/26 06:42:55;;;;;;;9.32;2.85;;;;;;;23.58;100.00;101377.19;5070340;28;20029;-53
2022/07/26 06:45:21;;;;;;;8.45;2.70;;;;;;;23.77;100.00;101377.50;5069326;28;20072;-53
2022/07/26 06:47:46;;;;;;;8.52;2.75;;;;;;;23.75;100.00;101385.97;5067843;28;20037;-53
2022/07/26 06:50:12;;;;;;;7.55;3.40;;;;;;;23.83;100.00;101389.25;5067990;28;20033;-52
2022/07/26 06:52:37;;;;;;;6.85;1.90;;;;;;;24.11;100.00;101401.56;5066916;28;20043;-51
2022/07/26 06:55:04;;;;;;;5.30;2.20;;;;;;;23.98;100.00;101393.88;5069083;28;20045;-54
2022/07/26 06:57:30;;;;;;;5.37;2.13;;;;;;;24.26;100.00;101402.66;5074026;28;20029;-52
2022/07/26 06:59:55;;;;;;;8.90;2.33;;;;;;;24.33;100.00;101401.28;5075928;28;20032;-48
2022/07/26 07:02:20;;;;;;;6.60;1.90;;;;;;;24.11;100.00;101404.31;5072448;28;20049;-54
2022/07/26 07:04:46;;;;;;;6.22;2.20;;;;;;;24.14;100.00;101409.22;5072902;28;20037;-51
2022/07/26 07:07:11;;;;;;;4.47;1.70;;;;;;;23.04;100.00;101410.03;5072157;28;20049;-48
2022/07/26 07:09:37;;;;;;;3.67;1.50;;;;;;;23.11;100.00;101411.69;5073797;28;20092;-49
2022/07/26 07:12:03;;;;;;;7.88;1.85;;;;;;;23.86;100.00;101410.53;5070519;28;20061;-52
2022/07/26 07:14:28;;;;;;;;;;;;;;;24.26;100.00;101419.06;5073324;28;20033;-50
2022/07/26 07:16:55;;;;;;;3.60;1.70;;;;;;;24.51;100.00;101422.88;5066950;28;19947;-52
2022/07/26 07:19:21;;;;;;;6.70;1.73;;;;;;;24.51;100.00;101428.34;5069758;28;20039;-48
2022/07/26 07:21:47;;;;;;;;;;;;;;;24.22;100.00;101432.44;5069039;28;20036;-49
2022/07/26 07:24:13;;;;;;;5.87;1.80;;;;;;;24.31;100.00;101438.19;5069496;28;19919;-50
2022/07/26 07:26:39;;;;;;;6.07;1.75;;;;;;;24.31;100.00;101447.19;5067283;28;20021;-55
2022/07/26 07:29:05;;;;;;;;;;;;;;;24.16;100.00;101450.75;5068568;28;20085;-50
2022/07/26 07:31:30;;;;;;;6.33;2.57;;;;;;;24.10;100.00;101457.31;5067550;28;19924;-50
2022/07/26 07:33:56;;;;;;;7.40;2.40;;;;;;;23.82;100.00;101456.69;5071310;28;20032;-52
2022/07/26 07:36:21;;;;;;;7.45;1.48;;;;;;;23.76;100.00;101457.78;5070805;28;20038;-51
2022/07/26 07:38:48;;;;;;;4.85;2.35;;;;;;;24.00;100.00;101465.47;5069524;28;20064;-51
2022/07/26 07:41:13;;;;;;;5.10;2.17;;;;;;;23.41;100.00;101467.50;5067567;28;20036;-52
2022/07/26 07:43:39;;;;;;;3.22;1.98;;;;;;;23.32;100.00;101465.31;5067937;28;20056;-51
2022/07/26 07:46:05;;;;;;;9.68;1.98;;;;;;;24.04;100.00;101472.06;5070639;28;20054;-51
2022/07/26 07:48:30;;;;;;;;;;;;;;;24.15;100.00;101465.50;5064772;28;20076;-50
2022/07/26 07:50:56;;;;;;;9.37;2.43;;;;;;;24.10;100.00;101470.97;5068994;28;19913;-48
2022/07/26 07:53:21;;;;;;;8.63;1.65;;;;;;;24.23;100.00;101477.00;5067313;28;20036;-50
2022/07/26 07:55:47;;;;;;;7.53;3.50;;;;;;;24.33;100.00;101477.78;5069539;28;20128;-47
2022/07/26 07:58:14;;;;;;;4.85;2.03;;;;;;;24.30;100.00;101480.28;5068328;28;20056;-51
2022/07/26 08:00:40;;;;;;;8.63;2.00;;;;;;;24.17;100.00;101478.91;5070284;28;20104;-50
2022/07/26 08:03:06;;;;;;;6.25;1.90;;;;;;;23.87;100.00;101480.44;5073129;28;20045;-53
2022/07/26 08:05:31;;;;;;;6.47;1.95;;;;;;;24.48;100.00;101485.19;5074383;28;20033;-53
2022/07/26 08:07:57;;;;;;;7.20;1.83;;;;;;;24.89;100.00;101483.50;5067141;28;20089;-50
2022/07/26 08:10:23;;;;;;;7.18;1.88;;;;;;;25.09;100.00;101493.59;5068727;28;20033;-52
2022/07/26 08:12:49;;;;;;;7.22;1.83;;;;;;;25.27;100.00;101480.41;5070275;28;20038;-51
2022/07/26 08:15:14;;;;;;;10.63;2.65;;;;;;;25.43;100.00;101494.84;5070077;28;20036;-53
2022/07/26 08:17:39;;;;;;;5.22;1.80;;;;;;;25.45;100.00;101490.72;5069140;28;20033;-54
2022/07/26 08:20:06;;;;;;;5.90;2.30;;;;;;;25.16;100.00;101494.13;5074417;28;20112;-49
2022/07/26 08:22:31;;;;;;;10.07;1.88;;;;;;;25.01;100.00;101499.63;5073152;28;20037;-50
2022/07/26 08:24:57;;;;;;;8.50;1.77;;;;;;;24.76;100.00;101501.31;5076131;28;20059;-50
2022/07/26 08:27:22;;;;;;;6.78;2.13;;;;;;;24.98;100.00;101502.91;5074288;28;20067;-50
2022/07/26 08:29:47;;;;;;;6.13;2.55;;;;;;;24.55;100.00;101503.22;5075868;28;20037;-52
2022/07/26 08:32:13;;;;;;;11.07;2.08;;;;;;;24.53;100.00;101502.69;5076428;28;20071;-48
2022/07/26 08:34:39;;;;;;;8.77;2.10;;;;;;;24.39;100.00;101508.69;5074781;28;20032;-52
2022/07/26 08:37:04;;;;;;;11.82;2.42;;;;;;;24.72;100.00;101511.13;5079158;28;20044;-52
2022/07/26 08:39:30;;;;;;;5.90;1.67;;;;;;;24.75;100.00;101511.44;5073814;28;20033;-52
2022/07/26 08:41:55;;;;;;;8.85;1.98;;;;;;;24.78;100.00;101510.06;5069364;28;20040;-52
2022/07/26 08:44:21;;;;;;;10.50;1.80;;;;;;;24.82;100.00;101511.16;5073622;28;20071;-53
2022/07/26 08:46:46;;;;;;;12.98;1.80;;;;;;;25.33;100.00;101520.34;5070190;28;20033;-52
2022/07/26 08:49:13;;;;;;;7.05;1.70;;;;;;;25.74;100.00;101514.72;5073505;28;20033;-51
2022/07/26 08:51:42;;;;;;;8.10;1.70;;;;;;;25.92;100.00;101513.25;5073194;28;20041;-54
2022/07/26 08:54:12;;;;;;;5.37;1.83;;;;;;;26.12;100.00;101516.13;5072895;28;20033;-49
2022/07/26 08:56:49;;;;;;;8.97;1.57;;;;;;;26.37;100.00;101525.28;5072355;28;20047;-53
2022/07/26 08:59:17;;;;;;;6.65;1.88;;;;;;;26.38;100.00;101518.69;5076062;28;20056;-53
2022/07/26 09:01:55;;;;;;;6.70;1.90;;;;;;;25.99;100.00;101525.78;5076475;28;20100;-51
2022/07/26 09:04:24;;;;;;;6.17;1.50;;;;;;;26.51;100.00;101529.00;5074774;28;20044;-50
2022/07/26 09:06:59;;;;;;;6.10;1.23;;;;;;;26.81;100.00;101524.34;5078827;28;20039;-54
2022/07/26 09:09:26;;;;;;;3.83;1.33;;;;;;;26.86;100.00;101531.75;5068695;28;20039;-51
2022/07/26 09:11:54;;;;;;;3.77;1.40;;;;;;;26.96;100.00;101525.34;5070616;28;20031;-55
2022/07/26 09:14:20;;;;;;;6.90;1.30;;;;;;;27.62;100.00;101539.44;5069786;28;20032;-50
2022/07/26 09:16:57;;;;;;;4.47;1.30;;;;;;;28.00;100.00;101546.88;5074088;28;20056;-50
2022/07/26 09:19:23;;;;;;;8.23;1.27;;;;;;;27.14;100.00;101540.25;5072482;28;20169;-51
2022/07/26 09:21:49;;;;;;;;;;;;;;;27.79;100.00;101549.91;5073855;28;20040;-56
2022/07/26 09:24:44;;;;;;;4.50;1.10;;;;;;;28.06;100.00;101548.44;5072509;28;19912;-54
2022/07/26 09:27:12;;;;;;;6.90;1.50;;;;;;;27.85;100.00;101551.47;5071000;28;20029;-53
2022/07/26 09:29:45;;;;;;;4.40;1.00;;;;;;;28.00;100.00;101555.94;5071333;28;20047;-51
2022/07/26 09:32:20;;;;;;;4.67;1.00;;;;;;;27.94;100.00;101550.81;5067261;28;20063;-52
2022/07/26 09:35:08;;;;;;;2.47;1.37;;;;;;;28.54;100.00;101557.63;5068506;28;20063;-53
2022/07/26 09:37:39;;;;;;;2.17;0.90;;;;;;;28.97;100.00;101559.41;5064257;28;20033;-51
2022/07/26 09:40:13;;;;;;;4.13;0.83;;;;;;;29.27;100.00;101566.22;5067999;28;20035;-51
2022/07/26 09:43:00;;;;;;;9.93;5.00;;;;;;;29.12;100.00;101574.81;5073779;28;20037;-55
2022/07/26 09:45:27;;;;;;;5.82;1.60;;;;;;;29.48;100.00;101571.34;5065581;28;20054;-50
2022/07/26 09:47:53;;;;;;;7.03;2.07;;;;;;;28.93;100.00;101566.59;5074112;28;20029;-53
2022/07/26 09:50:20;;;;;;;;;;;;;;;28.48;100.00;101574.22;5076464;28;20096;-49
2022/07/26 09:53:15;;;;;;;2.30;1.00;;;;;;;28.10;100.00;101584.41;5071647;28;19912;-50
2022/07/26 09:55:43;;;;;;;5.33;1.07;;;;;;;28.10;100.00;101578.91;5068986;28;20056;-49
2022/07/26 09:58:12;;;;;;;3.10;0.97;;;;;;;28.26;100.00;101577.59;5073688;28;20033;-52
2022/07/26 10:00:38;;;;;;;4.00;1.10;;;;;;;28.10;100.00;101590.69;5068629;28;20036;-49
2022/07/26 10:03:03;;;;;;;;;;;;;;;27.87;100.00;101584.97;5068551;28;20042;-54
2022/07/26 10:05:31;;;;;;;10.80;3.80;;;;;;;28.05;100.00;101586.13;5074216;28;19913;-48
2022/07/26 10:07:58;;;;;;;3.37;1.33;;;;;;;28.08;100.00;101586.63;5066772;28;20029;-49
2022/07/26 10:10:33;;;;;;;7.20;1.67;;;;;;;28.24;100.00;101590.00;5069362;28;20050;-50
2022/07/26 10:13:01;;;;;;;17.40;7.30;;;;;;;28.29;100.00;101588.00;5071963;28;20040;-52
2022/07/26 10:15:42;;;;;;;8.67;2.77;;;;;;;28.98;100.00;101591.31;5074288;28;20135;-51
2022/07/26 10:18:10;;;;;;;4.50;1.20;;;;;;;30.27;100.00;101596.97;5067660;28;20034;-50
2022/07/26 10:20:42;;;;;;;5.55;1.73;;;;;;;30.95;100.00;101598.09;5069263;28;20033;-50
2022/07/26 10:23:44;;;;;;;6.78;1.30;;;;;;;30.84;100.00;101605.81;5069853;28;20035;-51
2022/07/26 10:26:32;;;;;;;5.80;1.50;;;;;;;29.99;100.00;101610.81;5067691;28;20055;-49
2022/07/26 10:29:16;;;;;;;5.43;1.00;;;;;;;30.04;100.00;101604.41;5064294;28;20039;-49
2022/07/26 10:31:42;;;;;;;1.95;0.98;;;;;;;29.77;100.00;101611.56;5066022;28;20040;-51
2022/07/26 10:34:08;;;;;;;3.13;1.10;;;;;;;28.76;100.00;101609.28;5066468;28;20126;-51
2022/07/26 10:36:38;;;;;;;2.33;0.75;;;;;;;27.81;100.00;101610.88;5068259;28;20040;-48
2022/07/26 10:39:11;;;;;;;6.17;1.30;;;;;;;27.69;100.00;101616.00;5065788;28;20088;-50
2022/07/26 10:41:57;;;;;;;6.17;1.10;;;;;;;27.74;100.00;101622.22;5062990;28;20033;-50
2022/07/26 10:44:30;;;;;;;3.33;1.00;;;;;;;27.84;100.00;101613.03;5029110;28;1021964;-49
2022/07/26 10:47:07;;;;;;;2.77;0.90;;;;;;;27.80;100.00;101620.25;5068613;28;20047;-51
2022/07/26 10:49:56;;;;;;;2.53;0.90;;;;;;;27.91;100.00;101627.25;5067122;28;20041;-50
2022/07/26 10:52:29;;;;;;;6.07;0.97;;;;;;;27.42;100.00;101628.34;5065779;28;20042;-53
2022/07/26 10:54:58;;;;;;;5.80;1.43;;;;;;;27.80;100.00;101622.19;5068193;28;20028;-51
2022/07/26 10:57:31;;;;;;;55.03;27.83;;;;;;;28.11;100.00;101630.81;5071226;28;20045;-51
2022/07/26 10:59:58;;;;;;;10.97;4.87;;;;;;;27.94;100.00;101625.03;5069784;28;20096;-55
2022/07/26 11:02:27;;;;;;;7.43;3.37;;;;;;;28.35;100.00;101627.22;5074211;28;20033;-51
2022/07/26 11:05:13;;;;;;;7.17;2.63;;;;;;;28.65;100.00;101627.06;5075261;28;20021;-52
2022/07/26 11:08:07;;;;;;;3.37;0.60;;;;;;;28.81;100.00;101633.97;5067332;28;20021;-53
2022/07/26 11:10:37;;;;;;;2.43;0.97;;;;;;;28.29;100.00;101625.66;5071294;28;20057;-50
2022/07/26 11:13:05;;;;;;;2.40;1.23;;;;;;;28.47;100.00;101633.09;5072380;28;20033;-50
2022/07/26 11:15:31;;;;;;;2.83;1.60;;;;;;;28.48;100.00;101631.97;5070967;28;20037;-52
2022/07/26 11:18:09;;;;;;;;;;;;;;;29.09;100.00;101633.25;5069878;28;20060;-54